sensor_id;sensor_type;location;lat;lon;timestamp;pressure;altitude;pressure_sealevel;temperature;humidity
62948;BME280;51940;52.126;-0.994;2023-03-22T00:01:55;99060.05;;;9.47;100.00
62948;BME280;51940;52.126;-0.994;2023-03-22T00:04:21;99060.43;;;9.46;100.00
62948;BME280;51940;52.126;-0.994;2023-03-22T00:06:46;99050.85;;;9.45;100.00
62948;BME280;51940;52.126;-0.994;2023-03-22T00:09:11;99047.13;;;9.45;100.00
62948;BME280;51940;52.126;-0.994;2023-03-22T00:11:37;99047.99;;;9.46;100.00
62948;BME280;51940;52.126;-0.994;2023-03-22T00:14:02;99043.38;;;9.45;100.00
62948;BME280;51940;52.126;-0.994;2023-03-22T00:16:27;99039.08;;;9.46;100.00
62948;BME280;51940;52.126;-0.994;2023-03-22T00:18:52;99036.23;;;9.46;100.00
62948;BME280;51940;52.126;-0.994;2023-03-22T00:21:18;99024.80;;;9.47;100.00
62948;BME280;51940;52.126;-0.994;2023-03-22T00:23:43;99014.66;;;9.47;100.00
62948;BME280;51940;52.126;-0.994;2023-03-22T00:26:09;99016.98;;;9.46;100.00
62948;BME280;51940;52.126;-0.994;2023-03-22T00:28:35;99007.91;;;9.47;100.00
62948;BME280;51940;52.126;-0.994;2023-03-22T00:31:02;99008.14;;;9.45;100.00
62948;BME280;51940;52.126;-0.994;2023-03-22T00:33:29;99002.14;;;9.44;100.00
62948;BME280;51940;52.126;-0.994;2023-03-22T00:36:02;98995.29;;;9.42;100.00
62948;BME280;51940;52.126;-0.994;2023-03-22T00:38:30;98993.04;;;9.41;100.00
62948;BME280;51940;52.126;-0.994;2023-03-22T00:43:29;98980.14;;;9.39;100.00
62948;BME280;51940;52.126;-0.994;2023-03-22T00:45:55;98978.38;;;9.38;100.00
62948;BME280;51940;52.126;-0.994;2023-03-22T00:48:21;98973.44;;;9.37;100.00
62948;BME280;51940;52.126;-0.994;2023-03-22T00:50:47;98967.63;;;9.36;100.00
62948;BME280;51940;52.126;-0.994;2023-03-22T00:53:12;98959.52;;;9.34;100.00
62948;BME280;51940;52.126;-0.994;2023-03-22T00:55:38;98948.34;;;9.33;100.00
62948;BME280;51940;52.126;-0.994;2023-03-22T00:58:03;98944.13;;;9.32;100.00
62948;BME280;51940;52.126;-0.994;2023-03-22T01:00:28;98928.67;;;9.31;100.00
62948;BME280;51940;52.126;-0.994;2023-03-22T01:02:55;98932.83;;;9.30;100.00
62948;BME280;51940;52.126;-0.994;2023-03-22T01:05:24;98928.63;;;9.28;100.00
62948;BME280;51940;52.126;-0.994;2023-03-22T01:07:49;98919.94;;;9.28;100.00
62948;BME280;51940;52.126;-0.994;2023-03-22T01:10:15;98922.84;;;9.26;100.00
62948;BME280;51940;52.126;-0.994;2023-03-22T01:12:41;98919.35;;;9.25;100.00
62948;BME280;51940;52.126;-0.994;2023-03-22T01:15:06;98913.91;;;9.23;100.00
62948;BME280;51940;52.126;-0.994;2023-03-22T01:17:32;98913.02;;;9.23;100.00
62948;BME280;51940;52.126;-0.994;2023-03-22T01:19:57;98906.83;;;9.22;100.00
62948;BME280;51940;52.126;-0.994;2023-03-22T01:22:22;98898.30;;;9.22;100.00
62948;BME280;51940;52.126;-0.994;2023-03-22T01:24:48;98893.16;;;9.21;100.00
62948;BME280;51940;52.126;-0.994;2023-03-22T01:27:14;98894.59;;;9.21;100.00
62948;BME280;51940;52.126;-0.994;2023-03-22T01:29:40;98888.77;;;9.20;100.00
62948;BME280;51940;52.126;-0.994;2023-03-22T01:32:05;98883.62;;;9.20;100.00
62948;BME280;51940;52.126;-0.994;2023-03-22T01:34:30;98883.98;;;9.20;100.00
62948;BME280;51940;52.126;-0.994;2023-03-22T01:36:56;98874.23;;;9.19;100.00
62948;BME280;51940;52.126;-0.994;2023-03-22T01:39:21;98872.46;;;9.19;100.00
62948;BME280;51940;52.126;-0.994;2023-03-22T01:41:46;98862.70;;;9.19;100.00
62948;BME280;51940;52.126;-0.994;2023-03-22T01:44:19;98859.82;;;9.19;100.00
62948;BME280;51940;52.126;-0.994;2023-03-22T01:46:45;98851.29;;;9.19;100.00
62948;BME280;51940;52.126;-0.994;2023-03-22T01:49:13;98842.03;;;9.19;100.00
62948;BME280;51940;52.126;-0.994;2023-03-22T01:51:40;98845.61;;;9.18;100.00
62948;BME280;51940;52.126;-0.994;2023-03-22T01:54:09;98841.72;;;9.18;100.00
62948;BME280;51940;52.126;-0.994;2023-03-22T01:56:38;98839.23;;;9.18;100.00
62948;BME280;51940;52.126;-0.994;2023-03-22T01:59:04;98829.98;;;9.18;100.00
62948;BME280;51940;52.126;-0.994;2023-03-22T02:01:30;98821.33;;;9.17;100.00
62948;BME280;51940;52.126;-0.994;2023-03-22T02:06:31;98811.02;;;9.16;100.00
62948;BME280;51940;52.126;-0.994;2023-03-22T02:09:02;98811.40;;;9.16;100.00
62948;BME280;51940;52.126;-0.994;2023-03-22T02:11:29;98810.90;;;9.15;100.00
62948;BME280;51940;52.126;-0.994;2023-03-22T02:31:23;98780.10;;;9.16;100.00
62948;BME280;51940;52.126;-0.994;2023-03-22T02:39:21;98772.39;;;9.17;100.00
62948;BME280;51940;52.126;-0.994;2023-03-22T02:44:37;98763.11;;;9.18;100.00
62948;BME280;51940;52.126;-0.994;2023-03-22T02:47:06;98763.09;;;9.18;100.00
62948;BME280;51940;52.126;-0.994;2023-03-22T02:54:55;98751.17;;;9.21;100.00
62948;BME280;51940;52.126;-0.994;2023-03-22T03:00:12;98750.72;;;9.24;100.00
62948;BME280;51940;52.126;-0.994;2023-03-22T03:02:39;98745.52;;;9.25;100.00
62948;BME280;51940;52.126;-0.994;2023-03-22T03:05:07;98737.66;;;9.26;100.00
62948;BME280;51940;52.126;-0.994;2023-03-22T03:07:35;98736.94;;;9.26;100.00
62948;BME280;51940;52.126;-0.994;2023-03-22T03:10:02;98731.60;;;9.26;100.00
62948;BME280;51940;52.126;-0.994;2023-03-22T03:12:28;98730.52;;;9.26;100.00
62948;BME280;51940;52.126;-0.994;2023-03-22T03:14:54;98726.26;;;9.26;100.00
62948;BME280;51940;52.126;-0.994;2023-03-22T03:25:35;98724.92;;;9.28;100.00
62948;BME280;51940;52.126;-0.994;2023-03-22T03:28:10;98720.99;;;9.28;100.00
62948;BME280;51940;52.126;-0.994;2023-03-22T03:30:43;98723.84;;;9.28;100.00
62948;BME280;51940;52.126;-0.994;2023-03-22T03:33:13;98720.16;;;9.27;100.00
62948;BME280;51940;52.126;-0.994;2023-03-22T03:35:49;98720.39;;;9.26;100.00
62948;BME280;51940;52.126;-0.994;2023-03-22T03:38:16;98712.46;;;9.25;100.00
62948;BME280;51940;52.126;-0.994;2023-03-22T03:40:46;98712.17;;;9.23;100.00
62948;BME280;51940;52.126;-0.994;2023-03-22T03:43:13;98716.11;;;9.22;100.00
62948;BME280;51940;52.126;-0.994;2023-03-22T03:45:41;98715.45;;;9.21;100.00
62948;BME280;51940;52.126;-0.994;2023-03-22T03:48:11;98711.55;;;9.21;100.00
62948;BME280;51940;52.126;-0.994;2023-03-22T03:50:37;98709.95;;;9.21;100.00
62948;BME280;51940;52.126;-0.994;2023-03-22T03:53:03;98715.29;;;9.21;100.00
62948;BME280;51940;52.126;-0.994;2023-03-22T03:55:28;98707.31;;;9.20;100.00
62948;BME280;51940;52.126;-0.994;2023-03-22T03:57:54;98701.29;;;9.20;100.00
62948;BME280;51940;52.126;-0.994;2023-03-22T04:00:20;98699.73;;;9.19;100.00
62948;BME280;51940;52.126;-0.994;2023-03-22T04:02:45;98700.12;;;9.18;100.00
62948;BME280;51940;52.126;-0.994;2023-03-22T04:05:11;98694.80;;;9.18;100.00
62948;BME280;51940;52.126;-0.994;2023-03-22T04:07:36;98694.30;;;9.17;100.00
62948;BME280;51940;52.126;-0.994;2023-03-22T04:10:02;98700.17;;;9.17;100.00
62948;BME280;51940;52.126;-0.994;2023-03-22T04:12:27;98695.56;;;9.17;100.00
62948;BME280;51940;52.126;-0.994;2023-03-22T04:14:52;98693.06;;;9.17;100.00
62948;BME280;51940;52.126;-0.994;2023-03-22T04:17:20;98689.89;;;9.17;100.00
62948;BME280;51940;52.126;-0.994;2023-03-22T04:19:45;98690.58;;;9.17;100.00
62948;BME280;51940;52.126;-0.994;2023-03-22T04:22:10;98685.41;;;9.17;100.00
62948;BME280;51940;52.126;-0.994;2023-03-22T04:24:39;98684.50;;;9.18;100.00
62948;BME280;51940;52.126;-0.994;2023-03-22T04:27:05;98675.96;;;9.18;100.00
62948;BME280;51940;52.126;-0.994;2023-03-22T04:29:32;98677.41;;;9.17;100.00
62948;BME280;51940;52.126;-0.994;2023-03-22T04:32:00;98672.59;;;9.18;100.00
62948;BME280;51940;52.126;-0.994;2023-03-22T04:34:26;98668.33;;;9.17;100.00
62948;BME280;51940;52.126;-0.994;2023-03-22T04:36:51;98662.98;;;9.17;100.00
62948;BME280;51940;52.126;-0.994;2023-03-22T04:39:16;98666.02;;;9.17;100.00
62948;BME280;51940;52.126;-0.994;2023-03-22T04:41:41;98666.91;;;9.17;100.00
62948;BME280;51940;52.126;-0.994;2023-03-22T04:44:07;98661.39;;;9.17;100.00
62948;BME280;51940;52.126;-0.994;2023-03-22T04:46:34;98660.70;;;9.17;100.00
62948;BME280;51940;52.126;-0.994;2023-03-22T04:49:00;98663.14;;;9.18;100.00
62948;BME280;51940;52.126;-0.994;2023-03-22T04:51:25;98660.13;;;9.18;100.00
62948;BME280;51940;52.126;-0.994;2023-03-22T04:53:51;98663.25;;;9.19;100.00
62948;BME280;51940;52.126;-0.994;2023-03-22T04:56:17;98666.98;;;9.19;100.00
62948;BME280;51940;52.126;-0.994;2023-03-22T04:58:42;98668.20;;;9.20;100.00
62948;BME280;51940;52.126;-0.994;2023-03-22T05:01:09;98671.92;;;9.20;100.00
62948;BME280;51940;52.126;-0.994;2023-03-22T05:03:35;98672.60;;;9.21;100.00
62948;BME280;51940;52.126;-0.994;2023-03-22T05:06:02;98672.42;;;9.21;100.00
62948;BME280;51940;52.126;-0.994;2023-03-22T05:08:28;98678.83;;;9.21;100.00
62948;BME280;51940;52.126;-0.994;2023-03-22T05:10:54;98683.61;;;9.21;100.00
62948;BME280;51940;52.126;-0.994;2023-03-22T05:13:21;98686.42;;;9.22;100.00
62948;BME280;51940;52.126;-0.994;2023-03-22T05:15:47;98681.45;;;9.22;100.00
62948;BME280;51940;52.126;-0.994;2023-03-22T05:18:13;98671.11;;;9.23;100.00
62948;BME280;51940;52.126;-0.994;2023-03-22T05:20:39;98682.12;;;9.23;100.00
62948;BME280;51940;52.126;-0.994;2023-03-22T05:23:05;98689.95;;;9.23;100.00
62948;BME280;51940;52.126;-0.994;2023-03-22T05:25:32;98691.19;;;9.23;100.00
62948;BME280;51940;52.126;-0.994;2023-03-22T05:27:58;98696.66;;;9.24;100.00
62948;BME280;51940;52.126;-0.994;2023-03-22T05:30:29;98694.30;;;9.25;100.00
62948;BME280;51940;52.126;-0.994;2023-03-22T05:32:58;98695.33;;;9.26;100.00
62948;BME280;51940;52.126;-0.994;2023-03-22T05:35:25;98692.09;;;9.26;100.00
62948;BME280;51940;52.126;-0.994;2023-03-22T05:37:50;98689.58;;;9.27;100.00
62948;BME280;51940;52.126;-0.994;2023-03-22T05:40:16;98694.73;;;9.27;100.00
62948;BME280;51940;52.126;-0.994;2023-03-22T05:42:42;98705.00;;;9.28;100.00
62948;BME280;51940;52.126;-0.994;2023-03-22T05:45:08;98700.17;;;9.29;100.00
62948;BME280;51940;52.126;-0.994;2023-03-22T05:47:34;98702.62;;;9.29;100.00
62948;BME280;51940;52.126;-0.994;2023-03-22T05:50:01;98702.59;;;9.30;100.00
62948;BME280;51940;52.126;-0.994;2023-03-22T05:52:26;98706.33;;;9.30;100.00
62948;BME280;51940;52.126;-0.994;2023-03-22T05:54:51;98709.31;;;9.31;100.00
62948;BME280;51940;52.126;-0.994;2023-03-22T05:57:17;98714.80;;;9.32;100.00
62948;BME280;51940;52.126;-0.994;2023-03-22T05:59:42;98705.55;;;9.31;100.00
62948;BME280;51940;52.126;-0.994;2023-03-22T06:02:07;98701.98;;;9.32;100.00
62948;BME280;51940;52.126;-0.994;2023-03-22T06:04:33;98702.51;;;9.32;100.00
62948;BME280;51940;52.126;-0.994;2023-03-22T06:06:58;98703.05;;;9.32;100.00
62948;BME280;51940;52.126;-0.994;2023-03-22T06:09:23;98709.84;;;9.31;100.00
62948;BME280;51940;52.126;-0.994;2023-03-22T06:11:48;98711.80;;;9.31;100.00
62948;BME280;51940;52.126;-0.994;2023-03-22T06:14:14;98714.11;;;9.31;100.00
62948;BME280;51940;52.126;-0.994;2023-03-22T06:16:39;98718.92;;;9.31;100.00
62948;BME280;51940;52.126;-0.994;2023-03-22T06:19:05;98720.69;;;9.31;100.00
62948;BME280;51940;52.126;-0.994;2023-03-22T06:21:30;98719.42;;;9.32;100.00
62948;BME280;51940;52.126;-0.994;2023-03-22T06:23:56;98714.98;;;9.32;100.00
62948;BME280;51940;52.126;-0.994;2023-03-22T06:26:21;98710.70;;;9.32;100.00
62948;BME280;51940;52.126;-0.994;2023-03-22T06:28:46;98706.23;;;9.32;100.00
62948;BME280;51940;52.126;-0.994;2023-03-22T06:31:12;98704.08;;;9.33;100.00
62948;BME280;51940;52.126;-0.994;2023-03-22T06:33:37;98701.58;;;9.33;100.00
62948;BME280;51940;52.126;-0.994;2023-03-22T06:36:02;98705.30;;;9.33;100.00
62948;BME280;51940;52.126;-0.994;2023-03-22T06:38:29;98719.03;;;9.33;100.00
62948;BME280;51940;52.126;-0.994;2023-03-22T06:40:55;98719.55;;;9.33;100.00
62948;BME280;51940;52.126;-0.994;2023-03-22T06:43:20;98721.68;;;9.33;100.00
62948;BME280;51940;52.126;-0.994;2023-03-22T06:45:46;98729.50;;;9.33;100.00
62948;BME280;51940;52.126;-0.994;2023-03-22T06:48:13;98730.39;;;9.33;100.00
62948;BME280;51940;52.126;-0.994;2023-03-22T06:50:39;98735.58;;;9.33;100.00
62948;BME280;51940;52.126;-0.994;2023-03-22T06:53:06;98741.42;;;9.33;100.00
62948;BME280;51940;52.126;-0.994;2023-03-22T06:55:32;98739.03;;;9.35;100.00
62948;BME280;51940;52.126;-0.994;2023-03-22T06:58:01;98744.31;;;9.36;100.00
62948;BME280;51940;52.126;-0.994;2023-03-22T07:00:27;98747.08;;;9.38;100.00
62948;BME280;51940;52.126;-0.994;2023-03-22T07:02:53;98747.02;;;9.39;100.00
62948;BME280;51940;52.126;-0.994;2023-03-22T07:05:18;98753.37;;;9.40;100.00
62948;BME280;51940;52.126;-0.994;2023-03-22T07:07:44;98750.30;;;9.41;100.00
62948;BME280;51940;52.126;-0.994;2023-03-22T07:10:10;98751.25;;;9.44;100.00
62948;BME280;51940;52.126;-0.994;2023-03-22T07:12:35;98747.47;;;9.45;100.00
62948;BME280;51940;52.126;-0.994;2023-03-22T07:15:01;98754.13;;;9.47;100.00
62948;BME280;51940;52.126;-0.994;2023-03-22T07:17:26;98757.97;;;9.48;100.00
62948;BME280;51940;52.126;-0.994;2023-03-22T07:19:51;98759.86;;;9.50;100.00
62948;BME280;51940;52.126;-0.994;2023-03-22T07:22:17;98764.75;;;9.52;100.00
62948;BME280;51940;52.126;-0.994;2023-03-22T07:24:50;98762.70;;;9.54;100.00
62948;BME280;51940;52.126;-0.994;2023-03-22T07:27:16;98766.80;;;9.58;100.00
62948;BME280;51940;52.126;-0.994;2023-03-22T07:29:41;98771.23;;;9.62;100.00
62948;BME280;51940;52.126;-0.994;2023-03-22T07:32:06;98774.05;;;9.67;100.00
62948;BME280;51940;52.126;-0.994;2023-03-22T07:34:32;98775.48;;;9.70;100.00
62948;BME280;51940;52.126;-0.994;2023-03-22T07:36:57;98781.70;;;9.74;100.00
62948;BME280;51940;52.126;-0.994;2023-03-22T07:39:22;98787.63;;;9.77;100.00
62948;BME280;51940;52.126;-0.994;2023-03-22T07:41:49;98787.06;;;9.81;100.00
62948;BME280;51940;52.126;-0.994;2023-03-22T07:44:15;98796.63;;;9.86;100.00
62948;BME280;51940;52.126;-0.994;2023-03-22T07:46:40;98800.79;;;9.93;100.00
62948;BME280;51940;52.126;-0.994;2023-03-22T07:49:06;98802.37;;;10.00;100.00
62948;BME280;51940;52.126;-0.994;2023-03-22T07:51:31;98802.47;;;10.10;100.00
62948;BME280;51940;52.126;-0.994;2023-03-22T07:53:57;98807.66;;;10.16;100.00
62948;BME280;51940;52.126;-0.994;2023-03-22T07:56:22;98813.23;;;10.24;100.00
62948;BME280;51940;52.126;-0.994;2023-03-22T07:58:48;98816.66;;;10.30;100.00
62948;BME280;51940;52.126;-0.994;2023-03-22T08:01:14;98814.45;;;10.36;100.00
62948;BME280;51940;52.126;-0.994;2023-03-22T08:03:39;98809.09;;;10.43;100.00
62948;BME280;51940;52.126;-0.994;2023-03-22T08:06:05;98818.73;;;10.50;100.00
62948;BME280;51940;52.126;-0.994;2023-03-22T08:08:32;98813.89;;;10.58;100.00
62948;BME280;51940;52.126;-0.994;2023-03-22T08:10:57;98808.55;;;10.64;100.00
62948;BME280;51940;52.126;-0.994;2023-03-22T08:13:22;98807.48;;;10.68;100.00
62948;BME280;51940;52.126;-0.994;2023-03-22T08:15:48;98803.21;;;10.71;100.00
62948;BME280;51940;52.126;-0.994;2023-03-22T08:18:13;98801.83;;;10.74;100.00
62948;BME280;51940;52.126;-0.994;2023-03-22T08:20:39;98812.55;;;10.78;100.00
62948;BME280;51940;52.126;-0.994;2023-03-22T08:23:04;98814.31;;;10.78;100.00
62948;BME280;51940;52.126;-0.994;2023-03-22T08:25:29;98817.55;;;10.81;100.00
62948;BME280;51940;52.126;-0.994;2023-03-22T08:27:56;98817.02;;;10.84;100.00
62948;BME280;51940;52.126;-0.994;2023-03-22T08:30:21;98817.44;;;10.90;100.00
62948;BME280;51940;52.126;-0.994;2023-03-22T08:32:47;98817.92;;;10.94;100.00
62948;BME280;51940;52.126;-0.994;2023-03-22T08:35:12;98818.94;;;10.99;100.00
62948;BME280;51940;52.126;-0.994;2023-03-22T08:37:39;98819.96;;;11.04;100.00
62948;BME280;51940;52.126;-0.994;2023-03-22T08:40:07;98813.83;;;11.08;100.00
62948;BME280;51940;52.126;-0.994;2023-03-22T08:42:33;98809.95;;;11.11;100.00
62948;BME280;51940;52.126;-0.994;2023-03-22T08:44:59;98813.98;;;11.12;100.00
62948;BME280;51940;52.126;-0.994;2023-03-22T08:47:25;98814.98;;;11.17;100.00
62948;BME280;51940;52.126;-0.994;2023-03-22T08:49:51;98812.95;;;11.22;100.00
62948;BME280;51940;52.126;-0.994;2023-03-22T08:52:16;98811.55;;;11.28;100.00
62948;BME280;51940;52.126;-0.994;2023-03-22T08:54:41;98814.48;;;11.34;100.00
62948;BME280;51940;52.126;-0.994;2023-03-22T08:57:10;98818.95;;;11.37;100.00
62948;BME280;51940;52.126;-0.994;2023-03-22T08:59:36;98820.91;;;11.40;100.00
62948;BME280;51940;52.126;-0.994;2023-03-22T09:02:01;98830.73;;;11.44;100.00
62948;BME280;51940;52.126;-0.994;2023-03-22T09:04:26;98834.44;;;11.44;100.00
62948;BME280;51940;52.126;-0.994;2023-03-22T09:06:51;98831.39;;;11.45;100.00
62948;BME280;51940;52.126;-0.994;2023-03-22T09:09:17;98832.17;;;11.40;100.00
62948;BME280;51940;52.126;-0.994;2023-03-22T09:11:42;98836.13;;;11.33;100.00
62948;BME280;51940;52.126;-0.994;2023-03-22T09:14:09;98843.63;;;11.25;100.00
62948;BME280;51940;52.126;-0.994;2023-03-22T09:16:34;98842.67;;;11.20;100.00
62948;BME280;51940;52.126;-0.994;2023-03-22T09:19:00;98844.64;;;11.13;100.00
62948;BME280;51940;52.126;-0.994;2023-03-22T09:21:26;98841.66;;;11.08;100.00
62948;BME280;51940;52.126;-0.994;2023-03-22T09:23:51;98844.36;;;11.08;100.00
62948;BME280;51940;52.126;-0.994;2023-03-22T09:26:16;98843.94;;;11.09;100.00
62948;BME280;51940;52.126;-0.994;2023-03-22T09:28:42;98845.29;;;11.14;100.00
62948;BME280;51940;52.126;-0.994;2023-03-22T09:31:09;98845.61;;;11.25;100.00
62948;BME280;51940;52.126;-0.994;2023-03-22T09:33:35;98842.73;;;11.40;100.00
62948;BME280;51940;52.126;-0.994;2023-03-22T09:36:01;98846.38;;;11.55;100.00
62948;BME280;51940;52.126;-0.994;2023-03-22T09:38:27;98844.00;;;11.69;100.00
62948;BME280;51940;52.126;-0.994;2023-03-22T09:40:54;98839.16;;;11.83;100.00
62948;BME280;51940;52.126;-0.994;2023-03-22T09:43:26;98845.76;;;11.97;100.00
62948;BME280;51940;52.126;-0.994;2023-03-22T09:45:53;98844.27;;;12.05;100.00
62948;BME280;51940;52.126;-0.994;2023-03-22T09:48:20;98839.70;;;12.09;100.00
62948;BME280;51940;52.126;-0.994;2023-03-22T09:50:50;98833.14;;;12.15;100.00
62948;BME280;51940;52.126;-0.994;2023-03-22T09:53:16;98825.39;;;12.19;100.00
62948;BME280;51940;52.126;-0.994;2023-03-22T09:58:24;98824.40;;;12.34;100.00
62948;BME280;51940;52.126;-0.994;2023-03-22T10:00:59;98817.30;;;12.39;100.00
62948;BME280;51940;52.126;-0.994;2023-03-22T10:06:09;98822.79;;;12.40;100.00
62948;BME280;51940;52.126;-0.994;2023-03-22T10:16:26;98824.16;;;12.60;100.00
62948;BME280;51940;52.126;-0.994;2023-03-22T10:19:19;98832.41;;;12.63;100.00
62948;BME280;51940;52.126;-0.994;2023-03-22T10:21:47;98824.99;;;12.64;100.00
62948;BME280;51940;52.126;-0.994;2023-03-22T10:24:19;98833.39;;;12.64;100.00
62948;BME280;51940;52.126;-0.994;2023-03-22T10:26:48;98832.67;;;12.70;100.00
62948;BME280;51940;52.126;-0.994;2023-03-22T10:30:02;98831.64;;;12.73;100.00
62948;BME280;51940;52.126;-0.994;2023-03-22T10:32:08;98831.09;;;12.73;100.00
62948;BME280;51940;52.126;-0.994;2023-03-22T10:34:37;98830.77;;;12.76;100.00
62948;BME280;51940;52.126;-0.994;2023-03-22T10:37:02;98832.91;;;12.79;100.00
62948;BME280;51940;52.126;-0.994;2023-03-22T10:39:34;98836.27;;;12.82;100.00
62948;BME280;51940;52.126;-0.994;2023-03-22T10:42:03;98836.73;;;12.86;100.00
62948;BME280;51940;52.126;-0.994;2023-03-22T10:44:31;98840.11;;;12.93;100.00
62948;BME280;51940;52.126;-0.994;2023-03-22T10:47:01;98845.05;;;13.10;100.00
62948;BME280;51940;52.126;-0.994;2023-03-22T10:49:34;98844.84;;;13.19;100.00
62948;BME280;51940;52.126;-0.994;2023-03-22T10:52:03;98847.58;;;13.31;100.00
62948;BME280;51940;52.126;-0.994;2023-03-22T10:54:38;98843.20;;;13.44;100.00
62948;BME280;51940;52.126;-0.994;2023-03-22T10:57:03;98846.54;;;13.57;100.00
62948;BME280;51940;52.126;-0.994;2023-03-22T10:59:43;98846.89;;;13.69;100.00
62948;BME280;51940;52.126;-0.994;2023-03-22T11:02:19;98851.17;;;13.74;100.00
62948;BME280;51940;52.126;-0.994;2023-03-22T11:04:51;98850.92;;;13.79;100.00
62948;BME280;51940;52.126;-0.994;2023-03-22T11:07:34;98851.13;;;13.87;100.00
62948;BME280;51940;52.126;-0.994;2023-03-22T11:12:34;98856.56;;;14.18;100.00
62948;BME280;51940;52.126;-0.994;2023-03-22T11:15:00;98852.48;;;14.34;100.00
62948;BME280;51940;52.126;-0.994;2023-03-22T11:17:26;98844.45;;;14.44;100.00
62948;BME280;51940;52.126;-0.994;2023-03-22T11:19:52;98847.34;;;14.52;100.00
62948;BME280;51940;52.126;-0.994;2023-03-22T11:24:51;98848.73;;;14.61;100.00
62948;BME280;51940;52.126;-0.994;2023-03-22T11:27:30;98842.67;;;14.63;100.00
62948;BME280;51940;52.126;-0.994;2023-03-22T11:29:58;98837.38;;;14.59;100.00
62948;BME280;51940;52.126;-0.994;2023-03-22T11:32:27;98835.46;;;14.58;100.00
62948;BME280;51940;52.126;-0.994;2023-03-22T11:35:13;98836.20;;;14.58;100.00
62948;BME280;51940;52.126;-0.994;2023-03-22T11:37:43;98837.39;;;14.54;100.00
62948;BME280;51940;52.126;-0.994;2023-03-22T11:40:17;98837.06;;;14.61;100.00
62948;BME280;51940;52.126;-0.994;2023-03-22T11:42:43;98830.78;;;14.70;100.00
62948;BME280;51940;52.126;-0.994;2023-03-22T11:45:13;98829.73;;;14.78;100.00
62948;BME280;51940;52.126;-0.994;2023-03-22T11:47:39;98826.70;;;14.82;100.00
62948;BME280;51940;52.126;-0.994;2023-03-22T11:50:05;98822.27;;;14.82;100.00
62948;BME280;51940;52.126;-0.994;2023-03-22T11:52:31;98818.27;;;14.93;100.00
62948;BME280;51940;52.126;-0.994;2023-03-22T11:54:57;98819.90;;;15.03;100.00
62948;BME280;51940;52.126;-0.994;2023-03-22T11:57:25;98820.18;;;15.20;100.00
62948;BME280;51940;52.126;-0.994;2023-03-22T12:00:02;98821.81;;;15.31;100.00
62948;BME280;51940;52.126;-0.994;2023-03-22T12:02:34;98819.73;;;15.33;100.00
62948;BME280;51940;52.126;-0.994;2023-03-22T12:05:27;98814.80;;;15.31;100.00
62948;BME280;51940;52.126;-0.994;2023-03-22T12:07:59;98816.46;;;15.31;100.00
62948;BME280;51940;52.126;-0.994;2023-03-22T12:10:30;98816.38;;;15.29;100.00
62948;BME280;51940;52.126;-0.994;2023-03-22T12:13:00;98807.15;;;15.24;100.00
62948;BME280;51940;52.126;-0.994;2023-03-22T12:15:29;98807.67;;;15.22;100.00
62948;BME280;51940;52.126;-0.994;2023-03-22T12:20:28;98791.27;;;15.28;100.00
62948;BME280;51940;52.126;-0.994;2023-03-22T12:22:55;98790.63;;;15.35;100.00
62948;BME280;51940;52.126;-0.994;2023-03-22T12:25:22;98794.30;;;15.41;100.00
62948;BME280;51940;52.126;-0.994;2023-03-22T12:27:50;98792.66;;;15.42;100.00
62948;BME280;51940;52.126;-0.994;2023-03-22T12:30:21;98791.89;;;15.32;100.00
62948;BME280;51940;52.126;-0.994;2023-03-22T12:33:12;98794.33;;;15.34;100.00
62948;BME280;51940;52.126;-0.994;2023-03-22T12:35:35;98789.48;;;15.36;100.00
62948;BME280;51940;52.126;-0.994;2023-03-22T12:38:17;98792.21;;;15.41;100.00
62948;BME280;51940;52.126;-0.994;2023-03-22T12:40:44;98792.45;;;15.40;100.00
62948;BME280;51940;52.126;-0.994;2023-03-22T12:45:56;98798.07;;;15.18;100.00
62948;BME280;51940;52.126;-0.994;2023-03-22T12:48:37;98787.84;;;15.05;100.00
62948;BME280;51940;52.126;-0.994;2023-03-22T12:51:09;98774.44;;;14.96;100.00
62948;BME280;51940;52.126;-0.994;2023-03-22T12:53:37;98780.88;;;15.02;100.00
62948;BME280;51940;52.126;-0.994;2023-03-22T12:56:13;98778.98;;;15.11;100.00
62948;BME280;51940;52.126;-0.994;2023-03-22T12:58:40;98788.52;;;15.24;100.00
62948;BME280;51940;52.126;-0.994;2023-03-22T13:03:47;98787.66;;;15.26;100.00
62948;BME280;51940;52.126;-0.994;2023-03-22T13:07:30;98792.23;;;15.22;100.00
62948;BME280;51940;52.126;-0.994;2023-03-22T13:09:12;98781.33;;;15.21;100.00
62948;BME280;51940;52.126;-0.994;2023-03-22T13:11:40;98775.67;;;15.14;100.00
62948;BME280;51940;52.126;-0.994;2023-03-22T13:14:05;98770.08;;;15.07;100.00
62948;BME280;51940;52.126;-0.994;2023-03-22T13:16:42;98768.17;;;15.06;100.00
62948;BME280;51940;52.126;-0.994;2023-03-22T13:19:45;98759.30;;;15.05;100.00
62948;BME280;51940;52.126;-0.994;2023-03-22T13:22:17;98761.88;;;15.09;100.00
62948;BME280;51940;52.126;-0.994;2023-03-22T13:24:57;98758.45;;;15.09;100.00
62948;BME280;51940;52.126;-0.994;2023-03-22T13:27:22;98740.06;;;15.13;100.00
62948;BME280;51940;52.126;-0.994;2023-03-22T13:29:59;98735.20;;;15.10;100.00
62948;BME280;51940;52.126;-0.994;2023-03-22T13:32:29;98730.82;;;15.06;100.00
62948;BME280;51940;52.126;-0.994;2023-03-22T13:34:57;98731.73;;;15.08;100.00
62948;BME280;51940;52.126;-0.994;2023-03-22T13:37:27;98720.95;;;15.14;100.00
62948;BME280;51940;52.126;-0.994;2023-03-22T13:39:58;98717.61;;;15.18;100.00
62948;BME280;51940;52.126;-0.994;2023-03-22T13:42:44;98714.02;;;15.18;100.00
62948;BME280;51940;52.126;-0.994;2023-03-22T13:45:26;98710.92;;;15.18;100.00
62948;BME280;51940;52.126;-0.994;2023-03-22T13:51:07;98704.89;;;15.31;100.00
62948;BME280;51940;52.126;-0.994;2023-03-22T13:53:33;98702.72;;;15.36;100.00
62948;BME280;51940;52.126;-0.994;2023-03-22T13:56:02;98696.42;;;15.43;100.00
62948;BME280;51940;52.126;-0.994;2023-03-22T14:00:54;98704.16;;;15.46;100.00
62948;BME280;51940;52.126;-0.994;2023-03-22T14:03:24;98697.76;;;15.50;100.00
62948;BME280;51940;52.126;-0.994;2023-03-22T14:05:53;98697.45;;;15.52;100.00
62948;BME280;51940;52.126;-0.994;2023-03-22T14:08:23;98694.09;;;15.48;100.00